Time;durP1;ratioP1;P1;durP2;ratioP2;P2;SDS_P1;SDS_P2;PMS_P1;PMS_P2;Temp;Humidity;BMP_temperature;BMP_pressure;BME280_temperature;BME280_humidity;BME280_pressure;Samples;Min_cycle;Max_cycle;Signal;HPM_P1;HPM_P2
2021/04/20 00:01:02;;;;;;;12.98;8.78;;;;;;;7.68;71.09;96201.91;1773334;79;21167;-50
2021/04/20 00:03:30;;;;;;;10.15;8.50;;;;;;;7.67;71.04;96202.83;1768553;80;21120;-51
2021/04/20 00:05:58;;;;;;;10.45;8.05;;;;;;;7.69;71.04;96198.85;1762143;80;21578;-50
2021/04/20 00:08:25;;;;;;;14.70;8.33;;;;;;;7.73;70.93;96198.56;1762239;81;21507;-50
2021/04/20 00:10:53;;;;;;;10.95;8.20;;;;;;;7.78;70.92;96198.70;1760260;80;21129;-51
2021/04/20 00:13:21;;;;;;;13.43;8.80;;;;;;;7.85;70.79;96200.80;1762401;81;21554;-51
2021/04/20 00:15:50;;;;;;;15.68;9.38;;;;;;;7.93;70.81;96198.53;1762116;81;21165;-51
2021/04/20 00:18:18;;;;;;;11.73;8.75;;;;;;;8.01;70.56;96197.19;1770077;80;21368;-51
2021/04/20 00:20:46;;;;;;;10.43;8.60;;;;;;;8.09;70.23;96197.06;1756917;81;21243;-51
2021/04/20 00:23:13;;;;;;;9.38;8.10;;;;;;;8.11;69.93;96196.48;1743198;81;21072;-51
2021/04/20 00:25:41;;;;;;;10.60;8.38;;;;;;;8.10;69.81;96190.94;1731111;81;21067;-52
2021/04/20 00:28:09;;;;;;;10.32;8.28;;;;;;;8.11;69.83;96192.61;1759188;80;21153;-51
2021/04/20 00:30:37;;;;;;;11.08;8.33;;;;;;;8.15;69.65;96189.34;1760827;81;21438;-51
2021/04/20 00:33:04;;;;;;;10.23;7.33;;;;;;;8.15;69.48;96188.05;1760832;80;21974;-50
2021/04/20 00:35:32;;;;;;;10.98;8.23;;;;;;;8.16;69.28;96184.55;1762266;81;21155;-51
2021/04/20 00:38:00;;;;;;;10.10;7.78;;;;;;;8.13;69.26;96187.81;1774346;80;21141;-51
2021/04/20 00:40:27;;;;;;;14.78;8.45;;;;;;;8.09;69.48;96190.59;1793949;80;21470;-51
2021/04/20 00:42:57;;;;;;;12.10;8.43;;;;;;;8.13;69.47;96180.06;1756404;80;21188;-51
2021/04/20 00:45:31;;;;;;;10.98;8.53;;;;;;;8.14;69.36;96182.98;1731466;81;21503;-51
2021/04/20 00:47:59;;;;;;;12.25;8.45;;;;;;;8.13;69.25;96179.59;1740608;80;21188;-50
2021/04/20 00:50:34;;;;;;;11.25;8.23;;;;;;;8.10;69.27;96177.20;1756013;80;21098;-52
2021/04/20 00:53:02;;;;;;;11.50;8.30;;;;;;;8.10;69.30;96175.44;1756855;80;21183;-51
2021/04/20 00:55:31;;;;;;;12.13;8.08;;;;;;;8.08;69.17;96177.78;1734836;82;21124;-50
2021/04/20 00:58:00;;;;;;;11.40;7.85;;;;;;;8.07;69.22;96177.41;1759189;81;21551;-51
2021/04/20 01:00:30;;;;;;;12.43;8.68;;;;;;;8.05;69.23;96179.27;1740537;81;21509;-51
2021/04/20 01:02:57;;;;;;;11.65;8.50;;;;;;;7.98;69.31;96178.04;1738401;81;21132;-51
2021/04/20 01:05:35;;;;;;;12.05;8.75;;;;;;;7.92;69.66;96174.91;1766945;81;21099;-51
2021/04/20 01:08:10;;;;;;;10.05;8.13;;;;;;;7.95;69.70;96175.66;1824046;77;21113;-51
2021/04/20 01:10:48;;;;;;;10.15;7.83;;;;;;;7.96;69.64;96172.97;1820004;77;21157;-50
2021/04/20 01:13:17;;;;;;;12.53;7.85;;;;;;;7.97;69.54;96173.79;1812514;79;21077;-51
2021/04/20 01:15:49;;;;;;;8.53;6.33;;;;;;;7.92;69.46;96169.73;1816266;79;21044;-51
2021/04/20 01:18:23;;;;;;;9.68;5.95;;;;;;;7.87;69.55;96169.70;1810466;77;21045;-51
2021/04/20 01:20:56;;;;;;;9.35;7.03;;;;;;;7.86;69.72;96166.74;1811466;79;21382;-51
2021/04/20 01:23:55;;;;;;;8.55;6.40;;;;;;;7.86;69.75;96165.01;1812614;78;21530;-51
2021/04/20 01:26:26;;;;;;;10.38;7.00;;;;;;;7.86;69.85;96160.28;1814654;79;21474;-49
2021/04/20 01:28:58;;;;;;;8.65;7.15;;;;;;;7.83;69.78;96163.06;1783537;77;21077;-50
2021/04/20 01:31:29;;;;;;;10.45;7.53;;;;;;;7.77;69.87;96168.19;1784999;79;21041;-50
2021/04/20 01:33:58;;;;;;;9.08;7.25;;;;;;;7.69;70.13;96167.86;1750841;80;21376;-51
2021/04/20 01:36:26;;;;;;;9.08;6.65;;;;;;;7.64;70.28;96166.87;1809362;79;21500;-50
2021/04/20 01:38:55;;;;;;;;;;;;;;;7.63;70.42;96172.13;1825292;77;21482;-51
2021/04/20 01:41:25;;;;;;;15.83;9.18;;;;;;;7.64;70.60;96167.34;1810099;78;20508;-51
2021/04/20 01:43:54;;;;;;;12.73;9.10;;;;;;;7.61;70.69;96165.77;1811053;79;21573;-51
2021/04/20 01:46:21;;;;;;;11.45;8.65;;;;;;;7.60;70.85;96169.75;1804689;79;21598;-51
2021/04/20 01:48:53;;;;;;;13.00;8.60;;;;;;;7.56;70.98;96162.67;1792594;77;21168;-52
2021/04/20 01:51:23;;;;;;;10.10;7.55;;;;;;;7.57;70.99;96159.17;1823915;77;21183;-51
2021/04/20 01:53:51;;;;;;;9.35;6.53;;;;;;;7.62;70.84;96162.28;1813139;79;21559;-50
2021/04/20 01:56:19;;;;;;;9.45;6.78;;;;;;;7.68;70.66;96155.42;1813604;79;21147;-52
2021/04/20 01:58:47;;;;;;;;;;;;;;;7.75;70.53;96158.43;1822776;77;21191;-52
2021/04/20 02:01:20;;;;;;;8.38;6.62;;;;;;;7.83;70.27;96157.45;1800503;79;20224;-50
2021/04/20 02:03:49;;;;;;;12.95;7.15;;;;;;;7.88;70.13;96154.10;1799401;77;21476;-51
2021/04/20 02:06:19;;;;;;;;;;;;;;;7.96;70.08;96157.91;1765740;80;21057;-51
2021/04/20 02:08:48;;;;;;;9.53;7.17;;;;;;;8.01;70.09;96154.55;1736823;81;20254;-51
2021/04/20 02:11:18;;;;;;;8.83;7.53;;;;;;;8.08;70.01;96155.81;1742568;81;21201;-50
2021/04/20 02:13:46;;;;;;;9.10;7.15;;;;;;;8.11;69.75;96162.07;1774562;80;21189;-50
2021/04/20 02:16:14;;;;;;;9.38;6.62;;;;;;;8.13;69.51;96161.50;1756622;80;21060;-51
2021/04/20 02:18:53;;;;;;;8.83;7.30;;;;;;;8.13;69.43;96156.80;1827256;77;21111;-50
2021/04/20 02:21:20;;;;;;;8.63;7.53;;;;;;;8.14;69.56;96159.73;1806808;78;21659;-50
2021/04/20 02:23:48;;;;;;;9.03;7.03;;;;;;;8.12;69.44;96158.54;1809764;79;21619;-51
2021/04/20 02:26:29;;;;;;;7.65;6.58;;;;;;;8.02;69.58;96157.52;1808649;78;21172;-50
2021/04/20 02:29:00;;;;;;;10.53;6.97;;;;;;;7.94;69.81;96154.14;1808637;77;21055;-50
2021/04/20 02:31:28;;;;;;;9.78;7.05;;;;;;;7.88;70.05;96156.68;1813779;79;21608;-50
2021/04/20 02:33:57;;;;;;;11.43;7.47;;;;;;;7.85;70.37;96148.31;1777505;79;21474;-52
2021/04/20 02:36:25;;;;;;;9.48;7.40;;;;;;;7.77;70.29;96151.40;1813270;78;26704;-51
2021/04/20 02:38:53;;;;;;;8.33;6.60;;;;;;;7.61;70.78;96151.58;1806198;77;21100;-51
2021/04/20 02:41:21;;;;;;;7.72;5.53;;;;;;;7.46;71.23;96153.41;1799158;79;21554;-51
2021/04/20 02:43:50;;;;;;;8.48;6.00;;;;;;;7.37;71.62;96150.97;1804744;79;21107;-52
2021/04/20 02:46:19;;;;;;;7.97;6.03;;;;;;;7.29;72.00;96150.63;1802024;78;21138;-50
2021/04/20 02:48:48;;;;;;;;;;;;;;;7.23;72.27;96147.15;1814992;77;21120;-50
2021/04/20 02:51:16;;;;;;;;;;;;;;;7.21;72.63;96144.32;1803389;77;20280;-51
2021/04/20 02:53:44;;;;;;;8.73;6.65;;;;;;;7.25;72.90;96143.19;1798177;78;20260;-50
2021/04/20 02:56:15;;;;;;;8.38;7.00;;;;;;;7.32;72.87;96147.05;1803750;79;21588;-50
2021/04/20 02:58:44;;;;;;;7.17;6.22;;;;;;;7.36;72.83;96140.73;1801023;77;21545;-50
2021/04/20 03:01:23;;;;;;;7.80;6.62;;;;;;;7.44;72.73;96141.07;1801362;79;22268;-50
2021/04/20 03:03:51;;;;;;;8.58;6.62;;;;;;;7.51;72.53;96148.77;1791114;77;21602;-51
2021/04/20 03:06:22;;;;;;;8.43;7.03;;;;;;;7.56;72.47;96144.59;1809393;77;21171;-52
2021/04/20 03:08:50;;;;;;;8.53;7.30;;;;;;;7.62;72.31;96145.97;1806965;78;21165;-51
2021/04/20 03:11:24;;;;;;;8.85;7.35;;;;;;;7.64;72.21;96150.09;1801474;79;21057;-50
2021/04/20 03:13:51;;;;;;;9.10;7.55;;;;;;;7.65;72.36;96147.88;1809346;79;21540;-52
2021/04/20 03:16:21;;;;;;;11.30;9.03;;;;;;;7.72;72.16;96140.08;1800250;77;21554;-53
2021/04/20 03:18:49;;;;;;;10.03;8.28;;;;;;;7.80;72.01;96145.22;1801828;78;21166;-50
2021/04/20 03:21:17;;;;;;;9.23;6.95;;;;;;;7.85;71.84;96149.13;1802598;78;21488;-51
2021/04/20 03:23:45;;;;;;;10.18;6.85;;;;;;;7.90;71.43;96147.06;1812934;78;21051;-51
2021/04/20 03:26:39;;;;;;;7.78;6.97;;;;;;;7.88;71.38;96141.66;1784989;77;26711;-52
2021/04/20 03:29:09;;;;;;;12.35;8.28;;;;;;;7.83;71.22;96140.67;1808487;77;21235;-50
2021/04/20 03:31:40;;;;;;;10.85;8.08;;;;;;;7.69;71.63;96140.28;1806144;79;21062;-50
2021/04/20 03:34:21;;;;;;;9.30;7.90;;;;;;;7.60;71.90;96137.03;1815753;77;21039;-50
2021/04/20 03:36:53;;;;;;;8.55;7.28;;;;;;;7.55;72.14;96145.55;1808684;77;21112;-52
2021/04/20 03:39:22;;;;;;;8.93;6.90;;;;;;;7.48;72.48;96143.83;1805138;79;21353;-51
2021/04/20 03:42:09;;;;;;;7.83;6.15;;;;;;;7.47;72.70;96146.03;1802396;78;21225;-50
2021/04/20 03:44:50;;;;;;;7.00;5.97;;;;;;;7.51;72.97;96147.47;1815667;78;21037;-50
2021/04/20 03:47:27;;;;;;;7.12;6.42;;;;;;;7.63;72.87;96151.48;1823003;77;21545;-52
2021/04/20 03:49:56;;;;;;;8.58;6.55;;;;;;;7.73;72.61;96149.48;1806865;77;21037;-50
2021/04/20 03:52:27;;;;;;;;;;;;;;;7.79;72.51;96157.28;1812175;79;21353;-53
2021/04/20 03:54:55;;;;;;;7.47;6.67;;;;;;;7.84;72.36;96157.80;1809788;79;20221;-50
2021/04/20 03:57:23;;;;;;;9.43;7.20;;;;;;;7.88;72.19;96154.10;1814619;77;21060;-51
2021/04/20 03:59:50;;;;;;;9.80;8.70;;;;;;;7.96;72.09;96154.04;1771993;80;21352;-51
2021/04/20 04:02:18;;;;;;;10.03;7.90;;;;;;;8.06;71.91;96160.27;1819421;77;21093;-50
2021/04/20 04:04:46;;;;;;;10.08;8.50;;;;;;;8.16;71.66;96153.98;1821622;77;22440;-50
2021/04/20 04:07:15;;;;;;;12.60;9.70;;;;;;;8.25;71.54;96154.66;1811936;77;21192;-52
2021/04/20 04:09:45;;;;;;;15.55;12.35;;;;;;;8.32;71.14;96153.30;1847464;77;21045;-51
2021/04/20 04:12:14;;;;;;;12.37;10.08;;;;;;;8.32;70.86;96152.01;1796576;79;26502;-51
2021/04/20 04:14:41;;;;;;;13.83;9.98;;;;;;;8.32;70.71;96152.48;1801792;79;26687;-50
2021/04/20 04:17:12;;;;;;;14.40;10.50;;;;;;;8.39;70.55;96155.03;1816421;77;21663;-51
2021/04/20 04:19:47;;;;;;;13.78;10.18;;;;;;;8.46;70.29;96149.81;1839426;77;21149;-50
2021/04/20 04:22:25;;;;;;;14.80;10.15;;;;;;;8.52;69.83;96142.94;1741103;81;21067;-50
2021/04/20 04:24:56;;;;;;;13.10;10.10;;;;;;;8.55;69.28;96145.75;1782078;79;21120;-52
2021/04/20 04:27:26;;;;;;;14.33;10.53;;;;;;;8.49;69.45;96141.84;1811101;77;21156;-50
2021/04/20 04:29:56;;;;;;;15.88;10.60;;;;;;;8.49;69.62;96137.97;1759792;80;22238;-50
2021/04/20 04:32:25;;;;;;;13.48;10.68;;;;;;;8.50;69.35;96142.19;1816683;77;21033;-50
2021/04/20 04:34:53;;;;;;;11.88;9.63;;;;;;;8.46;69.32;96148.52;1815503;79;21564;-50
2021/04/20 04:37:20;;;;;;;11.33;8.75;;;;;;;8.48;69.63;96144.06;1811573;77;21101;-52
2021/04/20 04:39:48;;;;;;;14.63;10.55;;;;;;;8.57;69.06;96139.56;1813117;77;21126;-50
2021/04/20 04:42:16;;;;;;;12.05;10.08;;;;;;;8.56;68.82;96143.55;1816287;77;21386;-50
2021/04/20 04:44:47;;;;;;;11.10;8.73;;;;;;;8.54;69.06;96146.23;1814446;79;21520;-50
2021/04/20 04:47:15;;;;;;;11.80;9.80;;;;;;;8.59;68.70;96148.50;1779215;77;21198;-50
2021/04/20 04:49:44;;;;;;;12.30;9.38;;;;;;;8.54;68.89;96146.23;1779845;80;21041;-50
2021/04/20 04:52:14;;;;;;;12.30;10.18;;;;;;;8.59;68.61;96151.91;1779894;80;21119;-50
2021/04/20 04:54:43;;;;;;;12.07;9.78;;;;;;;8.70;68.60;96149.03;1773768;80;22194;-50
2021/04/20 04:57:13;;;;;;;12.65;10.40;;;;;;;8.89;68.20;96148.58;1811771;77;21163;-50
2021/04/20 04:59:41;;;;;;;13.32;10.30;;;;;;;9.15;67.42;96145.42;1848644;77;21112;-50
2021/04/20 05:02:11;;;;;;;12.53;9.73;;;;;;;9.39;66.28;96147.53;1786370;77;21600;-50
2021/04/20 05:04:39;;;;;;;14.60;9.13;;;;;;;9.54;65.54;96145.58;1743510;81;21577;-50
2021/04/20 05:07:08;;;;;;;10.80;8.18;;;;;;;9.59;64.87;96143.95;1813085;77;22159;-50
2021/04/20 05:09:36;;;;;;;11.73;8.65;;;;;;;9.58;64.55;96145.70;1852543;77;21053;-50
2021/04/20 05:12:05;;;;;;;10.58;8.68;;;;;;;9.59;64.43;96145.25;1799692;77;21481;-50
2021/04/20 05:14:33;;;;;;;10.50;8.38;;;;;;;9.63;64.10;96154.91;1759627;80;21506;-51
2021/04/20 05:17:01;;;;;;;9.15;7.60;;;;;;;9.64;64.33;96149.62;1777411;79;21133;-51
2021/04/20 05:19:34;;;;;;;16.25;12.40;;;;;;;9.74;64.24;96151.87;1770880;80;21219;-51
2021/04/20 05:22:02;;;;;;;37.90;27.02;;;;;;;9.88;63.92;96152.61;1805678;79;21125;-51
2021/04/20 05:24:30;;;;;;;31.60;12.95;;;;;;;10.02;63.65;96149.00;1790348;79;21203;-52
2021/04/20 05:26:59;;;;;;;20.80;10.03;;;;;;;10.14;62.86;96150.66;1748719;80;21054;-52
2021/04/20 05:29:27;;;;;;;10.80;7.83;;;;;;;10.19;62.44;96150.31;1775817;80;21068;-51
2021/04/20 05:31:55;;;;;;;10.18;7.85;;;;;;;10.24;62.23;96152.08;1777479;79;22159;-51
2021/04/20 05:34:25;;;;;;;9.97;7.77;;;;;;;10.34;62.29;96153.53;1777809;80;21107;-52
2021/04/20 05:36:54;;;;;;;10.80;8.18;;;;;;;10.49;62.02;96154.94;1748733;79;21077;-51
2021/04/20 05:39:23;;;;;;;10.82;6.75;;;;;;;10.64;61.42;96152.47;1793179;80;21088;-51
2021/04/20 05:41:51;;;;;;;10.75;8.25;;;;;;;10.77;61.21;96151.50;1746009;80;21121;-52
2021/04/20 05:44:18;;;;;;;30.65;22.50;;;;;;;10.89;60.78;96150.55;1749369;82;21215;-52
2021/04/20 05:46:47;;;;;;;30.15;20.05;;;;;;;10.99;60.74;96146.27;1750228;81;21079;-51
2021/04/20 05:49:20;;;;;;;14.47;12.28;;;;;;;11.13;60.55;96142.56;1753677;80;21061;-51
2021/04/20 05:51:47;;;;;;;13.13;9.93;;;;;;;11.27;60.38;96147.97;1735748;80;21171;-51
2021/04/20 05:54:15;;;;;;;12.65;9.35;;;;;;;11.37;60.02;96152.77;1721284;80;21055;-53
2021/04/20 05:56:43;;;;;;;10.80;8.88;;;;;;;11.45;59.67;96152.61;1775516;80;21366;-51
2021/04/20 05:59:14;;;;;;;10.48;8.08;;;;;;;11.44;59.19;96154.39;1770546;80;21923;-51
2021/04/20 06:01:42;;;;;;;10.80;8.65;;;;;;;11.41;58.81;96154.63;1769406;80;21113;-53
2021/04/20 06:04:10;;;;;;;10.58;8.85;;;;;;;11.37;58.79;96154.55;1770026;80;21139;-51
2021/04/20 06:06:40;;;;;;;11.75;9.40;;;;;;;11.30;58.65;96153.38;1758767;81;21506;-50
2021/04/20 06:09:09;;;;;;;13.35;11.22;;;;;;;11.15;59.08;96152.37;1768056;79;21371;-51
2021/04/20 06:11:39;;;;;;;17.07;11.57;;;;;;;11.02;59.87;96153.82;1782303;80;21069;-51
2021/04/20 06:14:07;;;;;;;13.32;11.60;;;;;;;11.02;60.31;96158.20;1764259;80;21069;-51
2021/04/20 06:16:36;;;;;;;14.13;12.18;;;;;;;11.07;60.52;96157.36;1752499;80;21499;-51
2021/04/20 06:19:05;;;;;;;;;;;;;;;11.14;60.74;96161.58;1759985;80;21081;-51
2021/04/20 06:21:34;;;;;;;17.48;13.75;;;;;;;11.20;60.70;96155.42;1766292;80;23609;-51
2021/04/20 06:24:05;;;;;;;17.57;14.03;;;;;;;11.22;60.87;96159.20;1761437;80;21127;-52
2021/04/20 06:26:36;;;;;;;20.45;14.35;;;;;;;11.21;60.94;96162.25;1761843;81;21165;-50
2021/04/20 06:29:05;;;;;;;16.62;13.43;;;;;;;11.18;61.12;96159.08;1769858;80;21033;-51
2021/04/20 06:31:36;;;;;;;16.90;13.38;;;;;;;11.12;61.43;96156.52;1748027;81;21057;-49
2021/04/20 06:34:06;;;;;;;17.92;13.32;;;;;;;11.08;61.52;96159.47;1772200;80;22181;-51
2021/04/20 06:36:33;;;;;;;17.32;13.18;;;;;;;11.01;61.70;96162.55;1727058;82;21114;-50
2021/04/20 06:39:01;;;;;;;16.50;13.53;;;;;;;10.93;62.25;96152.42;1752870;81;21171;-50
2021/04/20 06:41:30;;;;;;;17.23;13.35;;;;;;;10.85;63.14;96157.76;1761458;81;21163;-50
2021/04/20 06:44:11;;;;;;;16.52;13.83;;;;;;;10.87;63.58;96149.82;1748184;80;21041;-51
2021/04/20 06:46:43;;;;;;;18.55;14.80;;;;;;;10.94;63.76;96154.09;1761749;81;21438;-51
2021/04/20 06:49:21;;;;;;;15.20;13.60;;;;;;;11.03;63.69;96150.74;1774654;80;21113;-50
2021/04/20 06:51:53;;;;;;;19.55;14.35;;;;;;;11.18;63.83;96151.29;1736660;81;21166;-51
2021/04/20 06:54:35;;;;;;;22.32;14.50;;;;;;;11.78;63.26;96143.84;1764306;80;21564;-51
2021/04/20 06:57:38;;;;;;;16.40;14.00;;;;;;;12.77;61.42;96145.99;1791186;80;21060;-51
2021/04/20 07:00:18;;;;;;;18.02;13.40;;;;;;;13.84;58.57;96139.58;1747614;82;21209;-52
2021/04/20 07:03:17;;;;;;;17.00;13.80;;;;;;;14.65;56.19;96139.08;1785574;79;21176;-50
2021/04/20 07:06:10;;;;;;;16.55;14.03;;;;;;;14.86;54.49;96137.55;1764509;80;21470;-51
2021/04/20 07:08:44;;;;;;;16.48;13.60;;;;;;;14.68;54.18;96140.59;1773201;80;21148;-51
2021/04/20 07:11:16;;;;;;;15.03;13.43;;;;;;;14.34;54.82;96139.80;1726359;83;21070;-51
2021/04/20 07:13:49;;;;;;;18.48;14.63;;;;;;;14.06;55.14;96139.77;1763266;79;21272;-51
2021/04/20 07:16:36;;;;;;;15.90;13.68;;;;;;;13.83;54.95;96141.84;1811578;79;21479;-52
2021/04/20 07:19:53;;;;;;;18.57;14.00;;;;;;;13.45;55.80;96140.91;1742779;81;21092;-50
2021/04/20 07:23:09;;;;;;;16.45;13.65;;;;;;;13.20;56.75;96144.84;1806437;79;21081;-50
2021/04/20 07:26:01;;;;;;;15.08;13.48;;;;;;;12.98;57.29;96146.73;1731096;83;21094;-50
2021/04/20 07:28:44;;;;;;;17.20;14.28;;;;;;;12.75;57.93;96153.13;1743883;82;22309;-51
2021/04/20 07:31:55;;;;;;;18.07;14.63;;;;;;;12.56;58.21;96150.77;1699320;80;21126;-52
2021/04/20 07:34:46;;;;;;;18.90;14.38;;;;;;;12.46;58.48;96146.83;1754494;80;21075;-52
2021/04/20 07:37:34;;;;;;;21.02;15.53;;;;;;;12.48;58.76;96142.80;1774453;80;21059;-49
2021/04/20 07:40:25;;;;;;;;;;;;;;;12.54;58.75;96147.48;1800130;77;21545;-49
2021/04/20 07:43:16;;;;;;;24.07;15.72;;;;;;;12.67;58.23;96140.76;1780067;79;22360;-50
2021/04/20 07:46:16;;;;;;;20.80;15.40;;;;;;;12.78;57.49;96141.95;1783554;80;21072;-50
2021/04/20 07:48:55;;;;;;;25.00;15.63;;;;;;;12.79;56.97;96138.87;1759245;77;21053;-50
2021/04/20 07:52:11;;;;;;;24.55;15.25;;;;;;;12.72;56.85;96146.38;1790715;77;21065;-50
2021/04/20 07:54:59;;;;;;;24.30;15.05;;;;;;;12.70;56.95;96140.01;1849073;77;21148;-50
2021/04/20 07:57:46;;;;;;;22.32;14.60;;;;;;;12.84;57.05;96138.80;1849189;77;21247;-51
2021/04/20 08:00:20;;;;;;;19.37;14.58;;;;;;;12.96;56.19;96136.94;1813925;77;21496;-50
2021/04/20 08:03:19;;;;;;;19.90;14.80;;;;;;;13.10;55.79;96134.89;1779877;80;21481;-50
2021/04/20 08:06:12;;;;;;;22.62;15.13;;;;;;;13.26;55.54;96128.67;1785910;77;21053;-50
2021/04/20 08:08:54;;;;;;;22.45;14.83;;;;;;;13.45;55.19;96129.17;1817898;77;21548;-51
2021/04/20 08:11:44;;;;;;;19.00;13.70;;;;;;;13.53;54.27;96132.41;1815596;79;21459;-51
2021/04/20 08:14:44;;;;;;;21.75;14.28;;;;;;;13.50;54.14;96126.98;1815380;79;21168;-52
2021/04/20 08:17:32;;;;;;;21.07;13.00;;;;;;;13.70;53.79;96129.58;1832484;77;21129;-51
2021/04/20 08:20:08;;;;;;;16.15;12.58;;;;;;;14.45;52.38;96124.45;1788441;77;21126;-51
2021/04/20 08:22:35;;;;;;;15.83;10.98;;;;;;;15.45;50.27;96120.17;1779831;80;21552;-51
2021/04/20 08:25:10;;;;;;;15.08;11.55;;;;;;;16.50;46.98;96118.95;1806739;77;22172;-51
2021/04/20 08:28:08;;;;;;;15.60;11.80;;;;;;;17.03;45.79;96119.66;1848982;77;21858;-50
2021/04/20 08:30:44;;;;;;;13.40;11.40;;;;;;;17.45;43.93;96114.80;1849169;77;21045;-51
2021/04/20 08:33:21;;;;;;;16.70;12.23;;;;;;;17.57;41.76;96115.31;1849068;77;21049;-51
2021/04/20 08:35:50;;;;;;;17.75;12.90;;;;;;;17.29;42.87;96117.73;1785337;77;21116;-51
2021/04/20 08:38:49;;;;;;;18.62;13.68;;;;;;;17.61;44.18;96113.98;1779894;80;21318;-51
2021/04/20 08:41:56;;;;;;;25.82;13.65;;;;;;;17.92;43.93;96116.80;1779687;80;21163;-51
2021/04/20 08:44:52;;;;;;;18.15;13.43;;;;;;;18.07;42.87;96116.13;1784977;79;21081;-51
2021/04/20 08:47:41;;;;;;;20.15;13.70;;;;;;;17.93;42.73;96121.58;1848969;77;21149;-52
2021/04/20 08:50:14;;;;;;;16.45;13.32;;;;;;;17.42;42.55;96122.52;1848636;77;21132;-51
2021/04/20 08:53:04;;;;;;;22.35;13.55;;;;;;;16.78;43.52;96126.10;1849144;77;21351;-52
2021/04/20 08:56:19;;;;;;;18.10;13.48;;;;;;;16.26;44.68;96130.11;1800874;77;21054;-51
2021/04/20 08:59:29;;;;;;;16.05;12.80;;;;;;;15.74;45.81;96127.77;1779707;79;21056;-50
2021/04/20 09:02:16;;;;;;;17.73;13.38;;;;;;;15.21;46.99;96120.76;1796737;77;21089;-51
2021/04/20 09:05:22;;;;;;;17.42;13.53;;;;;;;14.86;47.93;96127.59;1843334;77;21525;-51
2021/04/20 09:08:15;;;;;;;15.13;13.28;;;;;;;14.61;48.49;96124.69;1849050;77;21433;-50
2021/04/20 09:11:12;;;;;;;16.77;13.45;;;;;;;14.24;48.95;96121.56;1848968;77;21073;-50
2021/04/20 09:13:59;;;;;;;18.98;14.15;;;;;;;13.92;50.00;96125.36;1849179;77;21152;-50
2021/04/20 09:17:00;;;;;;;;;;;;;;;13.77;50.27;96122.86;1778789;77;21167;-51
2021/04/20 09:19:49;;;;;;;;;;;;;;;13.76;50.77;96121.20;1827219;77;20236;-50
2021/04/20 09:22:52;;;;;;;17.35;14.00;;;;;;;13.84;51.06;96114.00;1779704;79;21206;-51
2021/04/20 09:25:38;;;;;;;21.27;14.28;;;;;;;13.80;50.17;96117.38;1779868;80;21116;-51
2021/04/20 09:28:22;;;;;;;16.45;13.70;;;;;;;13.62;49.98;96113.34;1818149;77;21061;-51
2021/04/20 09:30:56;;;;;;;13.93;11.05;;;;;;;13.39;50.85;96120.14;1774614;80;21146;-50
2021/04/20 09:33:47;;;;;;;12.80;11.28;;;;;;;13.15;50.10;96121.80;1807612;79;21124;-50
2021/04/20 09:36:15;;;;;;;15.98;11.05;;;;;;;12.96;50.33;96120.00;1743978;82;21483;-51
2021/04/20 09:38:46;;;;;;;15.10;10.10;;;;;;;12.93;50.42;96118.12;1744054;82;21166;-50
2021/04/20 09:41:14;;;;;;;9.43;7.72;;;;;;;13.23;50.18;96110.70;1743988;81;21062;-50
2021/04/20 09:44:13;;;;;;;8.60;7.10;;;;;;;13.65;49.58;96109.62;1713235;82;21162;-52
2021/04/20 09:47:00;;;;;;;6.97;6.25;;;;;;;14.01;47.57;96108.53;1743954;82;21116;-50
2021/04/20 09:50:01;;;;;;;7.30;6.28;;;;;;;14.33;46.48;96097.23;1735310;81;21382;-51
2021/04/20 09:52:45;;;;;;;6.33;5.30;;;;;;;14.52;45.03;96097.64;1779689;79;21072;-51
2021/04/20 09:55:18;;;;;;;5.08;3.95;;;;;;;14.69;43.96;96097.86;1790660;77;21567;-51
2021/04/20 09:57:47;;;;;;;4.95;3.37;;;;;;;14.89;42.76;96098.56;1743927;82;21079;-52
2021/04/20 10:00:16;;;;;;;5.03;3.50;;;;;;;15.23;41.85;96094.83;1743331;81;21141;-50
2021/04/20 10:02:59;;;;;;;;;;;;;;;15.41;41.90;96096.13;1785128;77;22270;-50
2021/04/20 10:05:59;;;;;;;3.60;3.10;;;;;;;15.62;41.65;96094.51;1832963;77;20214;-50
2021/04/20 10:08:48;;;;;;;3.83;3.33;;;;;;;15.77;40.90;96096.12;1783493;80;21053;-51
2021/04/20 10:12:03;;;;;;;3.05;2.85;;;;;;;15.93;40.49;96094.58;1788364;77;21069;-51
2021/04/20 10:14:58;;;;;;;3.27;2.90;;;;;;;16.24;39.56;96089.69;1849181;77;21537;-51
2021/04/20 10:17:48;;;;;;;2.75;2.20;;;;;;;16.86;38.27;96082.12;1849184;77;21402;-51
2021/04/20 10:20:40;;;;;;;2.52;2.33;;;;;;;17.26;36.92;96080.04;1813198;77;21052;-49
2021/04/20 10:23:33;;;;;;;3.33;3.12;;;;;;;17.76;35.33;96069.08;1779825;80;21469;-51
2021/04/20 10:26:11;;;;;;;4.33;3.65;;;;;;;18.14;34.54;96073.30;1796250;79;21104;-50
2021/04/20 10:28:46;;;;;;;3.75;3.02;;;;;;;18.47;33.89;96076.29;1751917;79;21136;-51
2021/04/20 10:31:20;;;;;;;4.25;3.20;;;;;;;18.76;33.82;96071.73;1717690;83;22357;-51
2021/04/20 10:33:49;;;;;;;3.45;2.95;;;;;;;19.16;33.45;96060.70;1846228;77;21570;-51
2021/04/20 10:36:22;;;;;;;4.17;3.75;;;;;;;19.32;32.47;96063.70;1849131;77;21065;-51
2021/04/20 10:38:51;;;;;;;3.92;3.25;;;;;;;19.29;32.75;96060.94;1849151;77;21160;-51
2021/04/20 10:41:33;;;;;;;3.30;3.10;;;;;;;19.00;32.64;96065.56;1849170;77;21156;-51
2021/04/20 10:44:02;;;;;;;8.03;4.45;;;;;;;18.72;32.79;96066.52;1780416;77;21186;-51
2021/04/20 10:46:29;;;;;;;8.78;4.20;;;;;;;18.25;33.29;96060.28;1779761;80;21132;-51
2021/04/20 10:48:58;;;;;;;4.28;3.87;;;;;;;17.77;34.28;96060.70;1788959;77;21565;-51
2021/04/20 10:51:35;;;;;;;4.08;3.70;;;;;;;17.47;34.71;96063.83;1849259;77;21072;-51
2021/04/20 10:54:05;;;;;;;7.12;4.78;;;;;;;17.23;35.52;96058.58;1849261;77;21093;-50
2021/04/20 10:56:33;;;;;;;11.40;5.47;;;;;;;17.15;35.56;96060.69;1849073;77;21328;-51
2021/04/20 10:59:08;;;;;;;11.00;4.70;;;;;;;17.16;36.12;96060.22;1813031;77;21139;-51
2021/04/20 11:01:37;;;;;;;7.08;4.03;;;;;;;17.19;35.87;96057.28;1839739;77;21556;-51
2021/04/20 11:04:05;;;;;;;11.20;4.85;;;;;;;17.09;35.22;96063.48;1770717;77;21061;-50
2021/04/20 11:07:11;;;;;;;9.35;4.50;;;;;;;16.96;36.11;96063.13;1845419;77;21096;-53
2021/04/20 11:09:39;;;;;;;6.47;4.30;;;;;;;16.92;35.61;96060.48;1795939;77;21195;-51
2021/04/20 11:12:19;;;;;;;8.20;4.10;;;;;;;16.75;35.99;96068.28;1848956;77;21073;-51
2021/04/20 11:14:50;;;;;;;10.95;6.85;;;;;;;16.69;35.93;96070.25;1849137;77;21045;-51
2021/04/20 11:17:45;;;;;;;12.23;8.48;;;;;;;16.53;37.79;96070.20;1849162;77;21462;-51
2021/04/20 11:20:36;;;;;;;13.15;8.48;;;;;;;16.18;39.70;96068.05;1777937;77;21112;-50
2021/04/20 11:23:12;;;;;;;8.25;7.05;;;;;;;16.05;40.90;96071.59;1849104;77;21193;-50
2021/04/20 11:25:56;;;;;;;10.45;8.48;;;;;;;15.95;41.05;96063.38;1848991;77;21116;-51
2021/04/20 11:28:53;;;;;;;11.00;8.38;;;;;;;15.36;42.09;96066.17;1849051;77;21041;-50
2021/04/20 11:31:30;;;;;;;13.53;8.70;;;;;;;14.81;43.08;96060.61;1849072;77;21128;-51
2021/04/20 11:34:09;;;;;;;9.43;8.03;;;;;;;14.38;44.73;96052.44;1848624;77;21129;-50
2021/04/20 11:36:51;;;;;;;14.47;8.93;;;;;;;14.20;45.43;96049.77;1849115;77;21508;-51
2021/04/20 11:39:25;;;;;;;12.68;8.93;;;;;;;13.99;45.89;96059.11;1831066;77;21159;-51
2021/04/20 11:42:08;;;;;;;17.60;13.18;;;;;;;13.80;46.86;96056.91;1779804;80;21088;-51
2021/04/20 11:44:47;;;;;;;12.78;9.13;;;;;;;13.78;47.12;96054.93;1779803;80;21600;-50
2021/04/20 11:47:14;;;;;;;9.90;8.43;;;;;;;13.83;47.36;96052.37;1781284;79;21489;-50
2021/04/20 11:49:57;;;;;;;9.05;7.45;;;;;;;13.74;46.71;96050.13;1760250;81;21070;-50
2021/04/20 11:52:30;;;;;;;12.85;8.28;;;;;;;13.62;46.92;96048.98;1747104;80;21858;-49
2021/04/20 11:55:02;;;;;;;12.93;7.45;;;;;;;13.43;47.28;96033.38;1744983;80;21205;-51
2021/04/20 11:57:30;;;;;;;10.20;7.58;;;;;;;13.27;47.34;96037.81;1743882;82;21198;-51
2021/04/20 12:00:00;;;;;;;9.53;6.92;;;;;;;13.13;47.18;96045.58;1789897;77;21179;-51
2021/04/20 12:02:29;;;;;;;14.28;7.17;;;;;;;13.16;47.39;96049.70;1785169;79;21261;-52
2021/04/20 12:05:10;;;;;;;11.33;6.85;;;;;;;13.33;46.50;96044.30;1739394;81;21531;-51
2021/04/20 12:07:39;;;;;;;14.58;6.65;;;;;;;13.38;46.39;96042.91;1756682;80;21092;-50
2021/04/20 12:10:10;;;;;;;12.60;7.25;;;;;;;13.45;46.65;96054.91;1749789;80;28147;-51
2021/04/20 12:12:37;;;;;;;12.82;6.90;;;;;;;13.53;48.61;96052.91;1695524;82;21045;-52